Líbí se Vám tento web? Budeme velmi rádi, pokud přidáte hodnocení +1

Seznam meteostanic a jejich METAR

Vyhledat místa podle abecedy:
A B C D E F G H I J K L M N O P Q R S T U V W X Y Z

Filtrovat:

ID stanice:
a/nebo
Název místa (fulltext):
 
Místo (ID)Naposledy načteno 
Brno - Tuřany (Brno/Tu) 19.11.2017 04:00 UTC Zobrazit data
Místo: Brno - Tuřany
Teplota: 3 °C (pocitová: -0.6 °C)
Vítr: 1 m/s z(e) 200°
Počasí: zataženo
Dohlednost: 18 km
Zákl. oblačnosti: 6/8 990 m;8/8 1290 m
Vlhkost: 81%
Červená - Opava (Cervena/uL) 19.11.2017 01:00 UTC Zobrazit data
Místo: Červená - Opava
Teplota: 0 °C (pocitová: -9.7 °C)
Vítr: 6 m/s z(e) 270°
Počasí: zataženo
Dohlednost: 6 km
Zákl. oblačnosti: 8/8 60 m
Vlhkost: 100%
České Budějovice (C.Budej/po) 19.11.2017 04:00 UTC Zobrazit data
Místo: České Budějovice
Teplota: 4 °C (pocitová: -0.8 °C)
Vítr: 2 m/s z(e) 260°
Počasí: zataženo
Dohlednost: 35 km
Zákl. oblačnosti: 1/8 960 m;3/8 1260 m
Vlhkost: 75%
Cheb (Cheb) 19.11.2017 04:00 UTC Zobrazit data
Místo: Cheb
Teplota: 1 °C (pocitová: -4.6 °C)
Vítr: 2 m/s z(e) 220°
Počasí: sněží
Dohlednost: 5 km
Zákl. oblačnosti: 1/8 120 m;3/8 480 m
Vlhkost: 93%
Chotusice - Čáslav (Caslav) 19.11.2017 04:00 UTC Zobrazit data
Místo: Chotusice - Čáslav
Teplota: 3 °C (pocitová: -4.3 °C)
Vítr: 4 m/s z(e) 240°
Počasí: zataženo
Dohlednost: 10 km
Zákl. oblačnosti: 2/8 840 m;8/8 1110 m
Vlhkost: 87%
Churáňov (Churanov) 19.11.2017 02:00 UTC Zobrazit data
Místo: Churáňov
Teplota: -2 °C (pocitová: -13.2 °C)
Vítr: 7 m/s z(e) 250°
Počasí: sněží
Dohlednost: 2900 m
Zákl. oblačnosti: 1/8 90 m;3/8 180 m
Vlhkost: 100%
Doksany - Litoměřice (Doksany) 19.11.2017 04:00 UTC Zobrazit data
Místo: Doksany - Litoměřice
Teplota: 2 °C (pocitová: -4.7 °C)
Vítr: 3 m/s z(e) 230°
Počasí: oblačno
Dohlednost: 20 km
Zákl. oblačnosti: 3/8 1500 m
Vlhkost: 87%
Dukovany (Dukovany) 19.11.2017 04:00 UTC Zobrazit data
Místo: Dukovany
Teplota: 2 °C (pocitová: -4.7 °C)
Vítr: 3 m/s z(e) 270°
Počasí: skoro zataženo
Dohlednost: 20 km
Zákl. oblačnosti: 1/8 1260 m;5/8 1500 m
Vlhkost: 87%
Holešov (Holesov) 19.11.2017 04:00 UTC Zobrazit data
Místo: Holešov
Teplota: 3 °C (pocitová: -3.3 °C)
Vítr: 3 m/s z(e) 230°
Počasí: déšť
Dohlednost: 16 km
Zákl. oblačnosti: 8/8 750 m
Vlhkost: 87%
Kadaň - Tušimice (Tusimice) 19.11.2017 04:00 UTC Zobrazit data
Místo: Kadaň - Tušimice
Teplota: 2 °C (pocitová: -1.8 °C)
Vítr: 1 m/s z(e) 260°
Počasí: přeháňky
Dohlednost: 35 km
Zákl. oblačnosti: 7/8 870 m;7/8 3300 m
Vlhkost: 93%
Karlovy Vary (K.Vary) 19.11.2017 04:00 UTC Zobrazit data
Místo: Karlovy Vary
Teplota: 0 °C (pocitová: -8.4 °C)
Vítr: 4 m/s z(e) 260°
Počasí: sněží
Dohlednost: 4000 m
Zákl. oblačnosti: 8/8 90 m
Vlhkost: 100%
Kocelovice (Kocelovice) 19.11.2017 04:00 UTC Zobrazit data
Místo: Kocelovice
Teplota: 1 °C (pocitová: -7 °C)
Vítr: 4 m/s z(e) 260°
Počasí: sněží
Dohlednost: 4600 m
Zákl. oblačnosti: 1/8 150 m;5/8 330 m
Vlhkost: 93%
Kopisty (Kopisty) 18.11.2017 21:00 UTC Zobrazit data
Místo: Kopisty
Teplota: 4 °C (pocitová: -2 °C)
Vítr: 3 m/s z(e) 210°
Počasí: zataženo
Dohlednost: 30 km
Zákl. oblačnosti: 8/8 720 m
Vlhkost: 75%
Kostelní Myslová (K.Myslova) 19.11.2017 04:00 UTC Zobrazit data
Místo: Kostelní Myslová
Teplota: 0 °C (pocitová: -7.3 °C)
Vítr: 3 m/s z(e) 270°
Počasí: sněží
Dohlednost: 2400 m
Zákl. oblačnosti: 1/8 180 m;5/8 270 m
Vlhkost: 100%
Křešín - Kramolín (Kramolin) 19.11.2017 04:00 UTC Zobrazit data
Místo: Křešín - Kramolín
Teplota: 1 °C (pocitová: -7 °C)
Vítr: 4 m/s z(e) 240°
Počasí: sněží
Dohlednost: 4500 m
Zákl. oblačnosti: 1/8 240 m;3/8 390 m
Vlhkost: 93%
Kuchařovice - Znojmo (Kucharovic) 19.11.2017 04:00 UTC Zobrazit data
Místo: Kuchařovice - Znojmo
Teplota: 3 °C (pocitová: -3.3 °C)
Vítr: 3 m/s z(e) 290°
Počasí: zataženo
Dohlednost: 20 km
Zákl. oblačnosti: 1/8 1320 m;8/8 1500 m
Vlhkost: 81%
Liberec (Liberec) 19.11.2017 04:00 UTC Zobrazit data
Místo: Liberec
Teplota: 2 °C (pocitová: -4.7 °C)
Vítr: 3 m/s z(e) 270°
Počasí: zataženo
Dohlednost: 35 km
Zákl. oblačnosti: 1/8 1140 m;8/8 1500 m
Vlhkost: 81%
Luká (Luka) 19.11.2017 04:00 UTC Zobrazit data
Místo: Luká
Teplota: 1 °C (pocitová: -6 °C)
Vítr: 3 m/s z(e) 260°
Počasí: déšť
Dohlednost: 7 km
Zákl. oblačnosti: 5/8 390 m;8/8 510 m
Vlhkost: 93%
Lysá Hora (Lysa Hora) 18.11.2017 22:00 UTC Zobrazit data
Místo: Lysá Hora
Teplota: -4 °C (pocitová: -16.1 °C)
Vítr: 7 m/s z(e) 280°
Počasí: skoro zataženo
Dohlednost: 6 km
Zákl. oblačnosti: 7/8 30 m
Vlhkost: 100%
Milešovka (Milesovka) 19.11.2017 04:00 UTC Zobrazit data
Místo: Milešovka
Teplota: -1 °C (pocitová: -12.4 °C)
Vítr: 8 m/s z(e) 290°
Počasí: oblačno
Dohlednost: 30 km
Zákl. oblačnosti: 1/8 180 m
Vlhkost: 100%
Mošnov (Ostrava/Mo) 19.11.2017 04:00 UTC Zobrazit data
Místo: Mošnov
Teplota: 3 °C (pocitová: -5 °C)
Vítr: 5 m/s z(e) 210°
Počasí: zataženo
Dohlednost: 15 km
Zákl. oblačnosti: 3/8 690 m;8/8 900 m
Vlhkost: 81%
Náměšť nad Oslavou (Namest n/O) 19.11.2017 04:00 UTC Zobrazit data
Místo: Náměšť nad Oslavou
Teplota: 1 °C (pocitová: -7 °C)
Vítr: 4 m/s z(e) 260°
Počasí: déšť
Dohlednost: 15 km
Zákl. oblačnosti: 2/8 1050 m;8/8 1500 m
Vlhkost: 93%
Pardubice (Pardubice) 19.11.2017 04:00 UTC Zobrazit data
Místo: Pardubice
Teplota: 3 °C (pocitová: -5.5 °C)
Vítr: 6 m/s z(e) 240°
Počasí: skoro zataženo
Dohlednost: 10 km
Zákl. oblačnosti: 7/8 990 m
Vlhkost: 87%
Pec pod Sněžkou (Pec p.Snez) 19.11.2017 04:00 UTC Zobrazit data
Místo: Pec pod Sněžkou
Teplota: -1 °C (pocitová: -8.7 °C)
Vítr: 3 m/s z(e) 210°
Počasí: sněží
Dohlednost: 18 km
Zákl. oblačnosti: 1/8 540 m;3/8 840 m
Vlhkost: 93%
Plzeň město - Mikulka (Plzen/Miku) 19.11.2017 04:00 UTC Zobrazit data
Místo: Plzeň město - Mikulka
Teplota: 1 °C (pocitová: -6 °C)
Vítr: 3 m/s z(e) 210°
Počasí: zataženo
Dohlednost: 4600 m
Zákl. oblačnosti: 8/8 150 m
Vlhkost: 100%
Polom (Polom) 18.11.2017 21:00 UTC Zobrazit data
Místo: Polom
Teplota: 0 °C (pocitová: -8.4 °C)
Vítr: 4 m/s z(e) 220°
Počasí: sněží
Dohlednost: 10 km
Zákl. oblačnosti: 8/8 270 m
Vlhkost: 100%
Praha - Karlov (Praha/Kar) 19.11.2017 04:00 UTC Zobrazit data
Místo: Praha - Karlov
Teplota: 3 °C (pocitová: -5 °C)
Vítr: 5 m/s z(e) 240°
Počasí: skoro zataženo
Dohlednost: 20 km
Zákl. oblačnosti: 1/8 540 m;5/8 1200 m
Vlhkost: 81%
Praha - Kbely (Praha/Kbe) 19.11.2017 04:00 UTC Zobrazit data
Místo: Praha - Kbely
Teplota: 3 °C (pocitová: -5.5 °C)
Vítr: 6 m/s z(e) 230°
Počasí: zataženo
Dohlednost: 20 km
Zákl. oblačnosti: 2/8 420 m;8/8 1200 m
Vlhkost: 87%
Praha - Libuš (Praha/Lib) 19.11.2017 04:00 UTC Zobrazit data
Místo: Praha - Libuš
Teplota: 3 °C (pocitová: -3.3 °C)
Vítr: 3 m/s z(e) 250°
Počasí: zataženo
Dohlednost: 18 km
Zákl. oblačnosti: 4/8 360 m;8/8 870 m
Vlhkost: 87%
Praha - Ruzyně (Praha/Ru) 19.11.2017 04:00 UTC Zobrazit data
Místo: Praha - Ruzyně
Teplota: 2 °C (pocitová: -6.9 °C)
Vítr: 6 m/s z(e) 240°
Počasí: skoro zataženo
Dohlednost: 20 km
Zákl. oblačnosti: 2/8 300 m;5/8 1350 m
Vlhkost: 93%
Přibyslav (Pribyslav) 19.11.2017 04:00 UTC Zobrazit data
Místo: Přibyslav
Teplota: 1 °C (pocitová: -7 °C)
Vítr: 4 m/s z(e) 260°
Počasí: skoro zataženo
Dohlednost: 2400 m
Zákl. oblačnosti: 1/8 60 m;5/8 270 m
Vlhkost: 93%
Přimda (Primda) 19.11.2017 04:00 UTC Zobrazit data
Místo: Přimda
Teplota: 0 °C (pocitová: -9.7 °C)
Vítr: 6 m/s z(e) 260°
Počasí: sněží
Dohlednost: 200 m
Zákl. oblačnosti: 8/8 30 m
Vlhkost: 100%
Šerák (Serak) 19.11.2017 04:00 UTC Zobrazit data
Místo: Šerák
Teplota: -4 °C (pocitová: -15.4 °C)
Vítr: 6 m/s z(e) 270°
Počasí: sněží
Dohlednost: 1500 m
Zákl. oblačnosti: 7/8 30 m
Vlhkost: 93%
Svratouch (Svratouch) 19.11.2017 04:00 UTC Zobrazit data
Místo: Svratouch
Teplota: 0 °C (pocitová: -9.7 °C)
Vítr: 6 m/s z(e) 280°
Počasí: sněží
Dohlednost: 3100 m
Zákl. oblačnosti: 8/8 90 m
Vlhkost: 100%
Temelín (Temelin) 19.11.2017 04:00 UTC Zobrazit data
Místo: Temelín
Teplota: 0 °C (pocitová: -8.4 °C)
Vítr: 4 m/s z(e) 250°
Počasí: sněží
Dohlednost: 6 km
Zákl. oblačnosti: 8/8 660 m
Vlhkost: 100%
Ústí nad Labem - Kočkov (Usti n/L) 19.11.2017 04:00 UTC Zobrazit data
Místo: Ústí nad Labem - Kočkov
Teplota: 2 °C (pocitová: -5.6 °C)
Vítr: 4 m/s z(e) 270°
Počasí: oblačno
Dohlednost: 30 km
Zákl. oblačnosti: 4/8 1380 m
Vlhkost: 87%
Ústí nad Orlicí (Usti n/O) 19.11.2017 04:00 UTC Zobrazit data
Místo: Ústí nad Orlicí
Teplota: 2 °C (pocitová: -5.6 °C)
Vítr: 4 m/s z(e) 270°
Počasí: zataženo
Dohlednost: 12 km
Zákl. oblačnosti: 8/8 270 m
Vlhkost: 93%
Aalborg (EKYT) 17.11.2017 06:50 UTC Zobrazit METAR
EKYT 170650Z 25012KT 7000 FEW028 06/04 Q1017
Aarhus (EKAH) 12.10.2017 05:50 UTC Zobrazit METAR
EKAH 120550Z 24009KT 210V270 9999 FEW014 BKN031 12/11 Q0999
Abu Dhabi (OMAA) 19.11.2017 04:00 UTC Zobrazit METAR
OMAA 190400Z 11005KT CAVOK 21/11 Q1019 NOSIG
Abuja (DNAA) 05.11.2017 07:00 UTC Zobrazit METAR
DNAA 050700Z 08004KT 4100 HZ NSC 23/16 Q1015 TEMPO 3000 HZ
Accra (DGAA) 19.11.2017 04:00 UTC Zobrazit METAR
DGAA 190400Z 27006KT CAVOK 25/24 Q1009 NOSIG
Addis Abeba (HAAB) 18.11.2017 04:00 UTC Zobrazit METAR
HAAB 180400Z 30002KT 9999 FEW025 08/01 Q1026
Agana (PGUM) 19.11.2017 03:54 UTC Zobrazit METAR
PGUM 190354Z 09012KT 10SM FEW025 31/24 A2983 RMK AO2 SLP093 T03110244
Ahe Island (NTHE) Zatím nenačteno  
Akureyri (BIAR) 19.11.2017 04:00 UTC Zobrazit METAR
BIAR 190400Z 18001KT 9999 OVC045 M06/M08 Q1025 R01/390171 RMK RWY SANDED
Almaty (UAAA) Zatím nenačteno  
Amman (OJAM) 19.11.2017 04:00 UTC Zobrazit METAR
OJAM 190400Z 25004KT 5000 HZ NSC 16/03 Q1015 NOSIG
Amsterdam (EHAM) 19.11.2017 02:55 UTC Zobrazit METAR
EHAM 190255Z 29012KT 9999 FEW027 07/03 Q1015 TEMPO -SHRA FEW020CB
Antananarivo (FMMI) 19.11.2017 04:00 UTC Zobrazit METAR
FMMI 190400Z 15008KT 120V190 9999 SCT017 19/17 Q1022 NOSIG
1 2 3 ... 9 Další
Reklama

Počasí na Váš email

Emaily jsou bez reklamy a bez spamu



Odhlásit newsletter

Reklama


Lunární kalendář

  • 26.11.
  • 03.12.
  • 10.12.
  • 18.12.



Jsme na Google Plus

Reklama
Povinné ručení



Může Vás také zajímat:


Reklama